createdAt,value
2019-03-03T00:02:02.417Z,74.70
2019-03-03T00:04:34.674Z,76.00
2019-03-03T00:07:05.954Z,75.80
2019-03-03T00:09:37.168Z,75.70
2019-03-03T00:12:09.344Z,76.30
2019-03-03T00:14:40.536Z,76.50
2019-03-03T00:17:11.764Z,76.00
2019-03-03T00:19:42.912Z,75.50
2019-03-03T00:22:14.164Z,75.70
2019-03-03T00:24:45.353Z,75.40
2019-03-03T00:27:16.711Z,75.40
2019-03-03T00:29:47.929Z,75.30
2019-03-03T00:32:19.084Z,75.50
2019-03-03T00:34:50.300Z,75.30
2019-03-03T00:37:29.231Z,75.20
2019-03-03T00:40:15.154Z,75.60
2019-03-03T00:42:54.303Z,75.50
2019-03-03T00:45:47.266Z,75.10
2019-03-03T00:48:46.564Z,75.30
2019-03-03T00:51:39.522Z,75.60
2019-03-03T00:54:37.786Z,75.30
2019-03-03T00:57:26.867Z,75.80
2019-03-03T01:00:17.058Z,76.50
2019-03-03T01:03:07.251Z,76.10
2019-03-03T01:05:51.077Z,75.90
2019-03-03T01:08:44.356Z,75.70
2019-03-03T01:11:32.192Z,76.60
2019-03-03T01:14:14.806Z,76.50
2019-03-03T01:17:08.990Z,76.40
2019-03-03T01:19:57.016Z,76.70
2019-03-03T01:22:50.193Z,77.40
2019-03-03T01:25:21.573Z,77.10
2019-03-03T01:27:52.757Z,77.10
2019-03-03T01:30:24.037Z,77.90
2019-03-03T01:32:55.389Z,77.40
2019-03-03T01:35:26.711Z,77.30
2019-03-03T01:37:57.983Z,77.40
2019-03-03T01:40:29.190Z,76.90
2019-03-03T01:43:00.371Z,76.60
2019-03-03T01:45:31.549Z,76.60
2019-03-03T01:48:02.905Z,77.00
2019-03-03T01:50:34.325Z,77.00
2019-03-03T01:53:05.536Z,76.90
2019-03-03T01:55:36.721Z,76.90
2019-03-03T01:58:07.944Z,77.70
2019-03-03T02:00:39.321Z,77.70
2019-03-03T02:03:10.459Z,77.60
2019-03-03T02:05:41.628Z,78.00
2019-03-03T02:08:12.993Z,77.20
2019-03-03T02:10:44.444Z,77.60
2019-03-03T02:13:16.000Z,77.00
2019-03-03T02:15:47.209Z,78.50
2019-03-03T02:18:18.388Z,77.90
2019-03-03T02:20:49.621Z,77.90
2019-03-03T02:23:20.745Z,77.60
2019-03-03T02:25:51.938Z,77.30
2019-03-03T02:28:23.125Z,77.00
2019-03-03T02:30:54.473Z,77.40
2019-03-03T02:33:25.558Z,78.40
2019-03-03T02:35:56.884Z,77.60
2019-03-03T02:38:28.274Z,77.80
2019-03-03T02:40:59.491Z,77.90
2019-03-03T02:43:37.544Z,77.40
2019-03-03T02:46:08.761Z,77.60
2019-03-03T02:48:40.181Z,78.00
2019-03-03T02:51:11.350Z,78.50
2019-03-03T02:53:42.506Z,78.00
2019-03-03T02:56:13.631Z,77.80
2019-03-03T02:58:44.757Z,78.30
2019-03-03T03:01:37.823Z,77.90
2019-03-03T03:04:09.060Z,77.90
2019-03-03T03:06:45.520Z,77.40
2019-03-03T03:09:25.637Z,77.60
2019-03-03T03:12:27.967Z,77.50
2019-03-03T03:15:18.158Z,77.80
2019-03-03T03:17:55.878Z,79.10
2019-03-03T03:20:46.049Z,78.60
2019-03-03T03:23:36.343Z,78.70
2019-03-03T03:26:26.535Z,79.00
2019-03-03T03:29:22.461Z,78.60
2019-03-03T03:32:11.225Z,79.60
2019-03-03T03:34:48.203Z,79.40
2019-03-03T03:37:53.345Z,79.10
2019-03-03T03:40:52.955Z,78.60
2019-03-03T03:43:41.712Z,78.90
2019-03-03T03:46:36.934Z,78.20
2019-03-03T03:49:39.096Z,79.30
2019-03-03T03:52:31.950Z,78.40
2019-03-03T03:55:14.259Z,78.30
2019-03-03T03:58:00.854Z,78.30
2019-03-03T04:01:09.286Z,78.00
2019-03-03T04:03:57.943Z,78.10
2019-03-03T04:06:35.267Z,78.30
2019-03-03T04:09:32.427Z,77.90
2019-03-03T04:12:13.255Z,78.30
2019-03-03T04:15:12.766Z,78.80
2019-03-03T04:18:01.421Z,79.70
2019-03-03T04:20:51.308Z,78.90
2019-03-03T04:23:40.272Z,78.50
2019-03-03T04:26:22.066Z,78.40
2019-03-03T04:29:27.410Z,79.00
2019-03-03T04:32:17.602Z,78.70
2019-03-03T04:35:04.106Z,79.60
2019-03-03T04:37:54.299Z,79.20
2019-03-03T04:40:56.372Z,78.70
2019-03-03T04:43:55.368Z,79.50
2019-03-03T04:46:47.198Z,79.10
2019-03-03T04:49:37.388Z,79.60
2019-03-03T04:52:33.621Z,79.20
2019-03-03T04:55:32.416Z,79.80
2019-03-03T04:58:19.022Z,79.50
2019-03-03T05:01:15.156Z,78.90
2019-03-03T05:04:11.284Z,80.00
2019-03-03T05:06:51.327Z,79.50
2019-03-03T05:09:53.715Z,79.90
2019-03-03T05:12:43.497Z,80.00
2019-03-03T05:15:34.923Z,79.40
2019-03-03T05:18:23.880Z,78.90
2019-03-03T05:20:55.169Z,79.20
2019-03-03T05:23:26.433Z,79.80
2019-03-03T05:25:57.630Z,80.10
2019-03-03T05:28:28.842Z,79.30
2019-03-03T05:31:00.177Z,79.20
2019-03-03T05:33:31.683Z,79.60
2019-03-03T05:36:02.870Z,79.40
2019-03-03T05:38:35.228Z,79.50
2019-03-03T05:41:06.441Z,79.70
2019-03-03T05:43:37.793Z,80.60
2019-03-03T05:46:08.980Z,80.70
2019-03-03T05:48:40.209Z,80.60
2019-03-03T05:51:11.356Z,80.60
2019-03-03T05:53:42.516Z,80.70
2019-03-03T05:56:13.825Z,81.20
2019-03-03T05:58:45.170Z,82.00
2019-03-03T06:01:16.469Z,81.90
2019-03-03T06:03:47.663Z,82.50
2019-03-03T06:06:18.826Z,82.80
2019-03-03T06:08:50.252Z,83.60
2019-03-03T06:11:21.396Z,83.60
2019-03-03T06:13:52.848Z,84.10
2019-03-03T06:16:24.197Z,83.80
2019-03-03T06:18:55.439Z,84.10
2019-03-03T06:21:26.584Z,84.70
2019-03-03T06:23:57.836Z,84.80
2019-03-03T06:26:29.032Z,85.20
2019-03-03T06:29:00.328Z,86.00
2019-03-03T06:31:32.679Z,85.10
2019-03-03T06:34:03.902Z,85.20
2019-03-03T06:36:35.458Z,85.40
2019-03-03T06:39:07.748Z,85.80
2019-03-03T06:41:38.927Z,85.70
2019-03-03T06:44:10.080Z,86.00
2019-03-03T06:46:41.366Z,85.00
2019-03-03T06:49:12.919Z,84.70
2019-03-03T06:51:45.876Z,85.00
2019-03-03T06:54:16.749Z,85.20
2019-03-03T06:56:59.320Z,85.20
2019-03-03T06:59:30.516Z,85.30
2019-03-03T07:02:01.706Z,85.10
2019-03-03T07:04:33.063Z,85.50
2019-03-03T07:07:04.269Z,85.60
2019-03-03T07:09:35.873Z,85.40
2019-03-03T07:12:06.898Z,85.60
2019-03-03T07:14:37.871Z,85.90
2019-03-03T07:17:08.713Z,85.90
2019-03-03T07:19:40.073Z,86.10
2019-03-03T07:22:11.183Z,86.10
2019-03-03T07:24:42.630Z,86.10
2019-03-03T07:27:13.641Z,86.60
2019-03-03T07:29:44.488Z,86.50
2019-03-03T07:32:15.304Z,87.70
2019-03-03T07:34:47.160Z,93.10
2019-03-03T07:37:19.017Z,92.00
2019-03-03T07:39:50.217Z,92.70
2019-03-03T07:42:21.364Z,93.50
2019-03-03T07:44:52.409Z,94.20
2019-03-03T07:47:23.345Z,94.00
2019-03-03T07:50:14.988Z,91.70
2019-03-03T07:52:46.170Z,91.90
2019-03-03T07:55:17.245Z,91.40
2019-03-03T07:57:48.144Z,90.80
2019-03-03T08:00:19.081Z,91.20
2019-03-03T08:02:49.960Z,89.80
2019-03-03T08:05:20.898Z,90.60
2019-03-03T08:07:51.828Z,90.80
2019-03-03T08:10:22.843Z,88.80
2019-03-03T08:12:53.666Z,89.00
2019-03-03T08:15:24.517Z,87.90
2019-03-03T08:17:55.341Z,86.80
2019-03-03T08:20:26.560Z,87.00
2019-03-03T08:22:57.964Z,87.60
2019-03-03T08:25:30.713Z,86.70
2019-03-03T08:28:01.524Z,85.80
2019-03-03T08:30:32.373Z,85.60
2019-03-03T08:33:03.279Z,85.70
2019-03-03T08:35:34.153Z,84.90
2019-03-03T08:38:04.981Z,86.50
2019-03-03T08:40:35.833Z,85.80
2019-03-03T08:43:40.969Z,85.90
2019-03-03T08:46:31.053Z,86.10
2019-03-03T08:49:20.982Z,86.40
2019-03-03T08:52:13.879Z,86.00
2019-03-03T08:55:03.679Z,85.90
2019-03-03T08:57:57.749Z,85.80
2019-03-03T09:01:04.233Z,85.60
2019-03-03T09:04:03.037Z,85.50
2019-03-03T09:07:01.945Z,85.50
2019-03-03T09:09:50.868Z,86.30
2019-03-03T09:12:43.973Z,85.40
2019-03-03T09:15:38.307Z,85.90
2019-03-03T09:18:37.251Z,86.30
2019-03-03T09:21:18.818Z,86.30
2019-03-03T09:24:11.188Z,86.10
2019-03-03T09:27:07.015Z,85.70
2019-03-03T09:29:55.574Z,85.20
2019-03-03T09:32:48.297Z,84.50
2019-03-03T09:35:30.499Z,84.50
2019-03-03T09:38:31.221Z,84.90
2019-03-03T09:41:15.128Z,85.00
2019-03-03T09:44:05.175Z,85.00
2019-03-03T09:46:54.961Z,85.40
2019-03-03T09:49:43.535Z,85.50
2019-03-03T09:52:21.804Z,86.30
2019-03-03T09:55:17.476Z,86.10
2019-03-03T09:58:07.150Z,86.70
2019-03-03T10:01:02.956Z,86.30
2019-03-03T10:03:52.665Z,86.20
2019-03-03T10:06:45.593Z,86.00
2019-03-03T10:09:48.113Z,86.50
2019-03-03T10:12:44.577Z,86.40
2019-03-03T10:15:21.705Z,86.70
2019-03-03T10:18:14.162Z,86.70
2019-03-03T10:21:10.151Z,86.90
2019-03-03T10:24:00.276Z,87.10
2019-03-03T10:26:38.642Z,87.70
2019-03-03T10:29:17.461Z,87.70
2019-03-03T10:32:02.922Z,87.30
2019-03-03T10:34:55.609Z,88.60
2019-03-03T10:37:32.741Z,88.20
2019-03-03T10:40:22.459Z,87.90
2019-03-03T10:43:12.484Z,88.50
2019-03-03T10:46:05.050Z,88.10
2019-03-03T10:48:48.825Z,88.30
2019-03-03T10:51:35.450Z,87.40
2019-03-03T10:54:11.898Z,87.30
2019-03-03T10:57:07.974Z,87.70
2019-03-03T10:59:56.930Z,87.60
2019-03-03T11:02:38.246Z,87.50
2019-03-03T11:05:46.127Z,87.00
2019-03-03T11:08:33.576Z,86.60
2019-03-03T11:11:26.403Z,86.60
2019-03-03T11:14:09.236Z,86.00
2019-03-03T11:17:01.920Z,86.30
2019-03-03T11:19:57.230Z,86.00
2019-03-03T11:22:46.968Z,86.20
2019-03-03T11:25:27.623Z,86.40
2019-03-03T11:28:23.359Z,86.40
2019-03-03T11:31:05.790Z,86.90
2019-03-03T11:34:14.878Z,86.40
2019-03-03T11:36:53.923Z,86.10
2019-03-03T11:39:46.943Z,86.20
2019-03-03T11:42:35.370Z,87.20
2019-03-03T11:45:20.093Z,86.60
2019-03-03T11:48:04.420Z,86.80
2019-03-03T11:50:55.813Z,86.80
2019-03-03T11:53:41.629Z,86.40
2019-03-03T11:56:21.723Z,86.70
2019-03-03T11:59:11.512Z,87.50
2019-03-03T12:02:19.758Z,87.10
2019-03-03T12:05:18.349Z,87.10
2019-03-03T12:08:02.409Z,87.70
2019-03-03T12:10:52.256Z,87.60
2019-03-03T12:13:40.776Z,88.80
2019-03-03T12:16:25.032Z,88.20
2019-03-03T12:19:15.843Z,88.50
2019-03-03T12:22:20.942Z,88.70
2019-03-03T12:25:11.187Z,88.40
2019-03-03T12:27:57.881Z,88.10
2019-03-03T12:30:50.846Z,88.60
2019-03-03T12:33:58.957Z,90.10
2019-03-03T12:37:06.805Z,90.00
2019-03-03T12:39:54.780Z,90.60
2019-03-03T12:42:47.269Z,90.10
2019-03-03T12:45:55.512Z,90.70
2019-03-03T12:48:47.891Z,90.50
2019-03-03T12:51:45.848Z,90.10
2019-03-03T12:54:39.238Z,90.10
2019-03-03T12:57:21.929Z,90.20
2019-03-03T13:00:11.839Z,90.00
2019-03-03T13:03:04.529Z,89.80
2019-03-03T13:05:54.205Z,90.00
2019-03-03T13:08:41.847Z,89.60
2019-03-03T13:11:46.714Z,89.30
2019-03-03T13:14:45.475Z,89.20
2019-03-03T13:17:48.486Z,89.30
2019-03-03T13:20:31.016Z,89.00
2019-03-03T13:23:09.504Z,89.40
2019-03-03T13:25:56.401Z,89.30
2019-03-03T13:28:40.577Z,89.50
2019-03-03T13:31:33.304Z,89.30
2019-03-03T13:34:25.919Z,89.00
2019-03-03T13:37:16.101Z,89.20
2019-03-03T13:40:04.562Z,89.40
2019-03-03T13:42:52.992Z,89.30
2019-03-03T13:45:24.236Z,89.30
2019-03-03T13:47:55.081Z,88.90
2019-03-03T13:50:26.669Z,89.20
2019-03-03T13:52:57.619Z,88.90
2019-03-03T13:55:28.842Z,89.40
2019-03-03T13:57:59.704Z,89.60
2019-03-03T14:00:30.806Z,89.40
2019-03-03T14:03:01.640Z,89.00
2019-03-03T14:05:32.454Z,88.70
2019-03-03T14:08:03.389Z,89.00
2019-03-03T14:10:34.195Z,89.10
2019-03-03T14:13:05.933Z,88.80
2019-03-03T14:15:36.856Z,89.20
2019-03-03T14:18:07.895Z,89.60
2019-03-03T14:20:38.707Z,89.40
2019-03-03T14:23:09.999Z,89.70
2019-03-03T14:25:40.797Z,89.60
2019-03-03T14:28:12.633Z,89.30
2019-03-03T14:30:44.133Z,89.10
2019-03-03T14:33:15.181Z,89.10
2019-03-03T14:35:45.988Z,89.10
2019-03-03T14:38:19.053Z,89.00
2019-03-03T14:40:49.876Z,89.30
2019-03-03T14:43:20.746Z,89.40
2019-03-03T14:45:52.553Z,89.70
2019-03-03T14:48:23.893Z,89.50
2019-03-03T14:50:55.098Z,89.60
2019-03-03T14:53:25.986Z,89.60
2019-03-03T14:55:56.834Z,89.90
2019-03-03T14:58:27.764Z,89.90
2019-03-03T15:00:59.073Z,89.90
2019-03-03T15:03:30.155Z,89.80
2019-03-03T15:06:00.948Z,90.00
2019-03-03T15:08:31.878Z,89.70
2019-03-03T15:11:03.181Z,89.40
2019-03-03T15:13:34.006Z,89.40
2019-03-03T15:16:05.146Z,89.40
2019-03-03T15:18:35.993Z,89.40
2019-03-03T15:21:06.924Z,89.60
2019-03-03T15:23:37.748Z,89.30
2019-03-03T15:26:09.131Z,89.20
2019-03-03T15:28:40.938Z,88.90
2019-03-03T15:31:11.832Z,89.40
2019-03-03T15:33:43.104Z,89.60
2019-03-03T15:36:14.221Z,90.00
2019-03-03T15:38:45.430Z,90.10
2019-03-03T15:41:17.636Z,90.10
2019-03-03T15:43:48.786Z,90.10
2019-03-03T15:46:19.824Z,90.10
2019-03-03T15:48:51.024Z,90.40
2019-03-03T15:51:22.276Z,90.40
2019-03-03T15:53:53.465Z,90.30
2019-03-03T15:56:24.641Z,90.10
2019-03-03T15:58:55.960Z,90.00
2019-03-03T16:01:27.884Z,89.90
2019-03-03T16:03:58.816Z,90.00
2019-03-03T16:06:29.657Z,89.90
2019-03-03T16:09:00.643Z,90.00
2019-03-03T16:11:32.460Z,90.10
2019-03-03T16:14:03.361Z,90.10
2019-03-03T16:16:34.281Z,90.20
2019-03-03T16:19:05.312Z,90.20
2019-03-03T16:21:37.120Z,90.10
2019-03-03T16:24:08.720Z,90.00
2019-03-03T16:26:39.781Z,90.00
2019-03-03T16:29:11.616Z,90.30
2019-03-03T16:31:42.585Z,90.50
2019-03-03T16:34:13.428Z,90.70
2019-03-03T16:36:44.242Z,90.50
2019-03-03T16:39:15.582Z,90.70
2019-03-03T16:41:47.049Z,90.60
2019-03-03T16:44:17.985Z,90.80
2019-03-03T16:46:49.962Z,90.80
2019-03-03T16:49:21.008Z,90.80
2019-03-03T16:51:53.279Z,90.70
2019-03-03T16:54:24.473Z,90.60
2019-03-03T16:56:55.876Z,90.30
2019-03-03T16:59:26.730Z,90.40
2019-03-03T17:01:58.656Z,90.40
2019-03-03T17:04:29.925Z,90.70
2019-03-03T17:07:01.732Z,90.60
2019-03-03T17:09:33.875Z,90.90
2019-03-03T17:12:05.147Z,90.50
2019-03-03T17:14:36.998Z,90.50
2019-03-03T17:17:09.818Z,90.60
2019-03-03T17:19:40.726Z,90.80
2019-03-03T17:22:11.892Z,90.80
2019-03-03T17:24:42.756Z,90.60
2019-03-03T17:27:13.600Z,90.60
2019-03-03T17:29:44.752Z,90.80
2019-03-03T17:32:15.682Z,90.70
2019-03-03T17:34:46.578Z,90.70
2019-03-03T17:37:17.882Z,90.60
2019-03-03T17:39:49.129Z,90.70
2019-03-03T17:42:20.009Z,91.00
2019-03-03T17:44:50.881Z,91.30
2019-03-03T17:47:22.059Z,91.60
2019-03-03T17:49:57.167Z,91.50
2019-03-03T17:52:28.446Z,91.40
2019-03-03T17:54:59.493Z,91.60
2019-03-03T17:57:30.657Z,91.40
2019-03-03T18:00:01.773Z,91.60
2019-03-03T18:02:33.694Z,91.60
2019-03-03T18:05:04.742Z,91.50
2019-03-03T18:07:35.836Z,91.20
2019-03-03T18:10:07.301Z,92.00
2019-03-03T18:12:38.174Z,92.30
2019-03-03T18:15:09.833Z,92.40
2019-03-03T18:17:41.115Z,92.20
2019-03-03T18:20:13.126Z,92.20
2019-03-03T18:22:44.730Z,92.90
2019-03-03T18:25:17.936Z,92.10
2019-03-03T18:27:48.893Z,92.50
2019-03-03T18:30:21.667Z,92.60
2019-03-03T18:32:52.724Z,92.00
2019-03-03T18:35:23.607Z,92.40
2019-03-03T18:37:54.404Z,92.60
2019-03-03T18:40:25.689Z,93.10
2019-03-03T18:42:56.764Z,93.20
2019-03-03T18:45:27.856Z,93.00
2019-03-03T18:47:58.730Z,93.00
2019-03-03T18:50:30.129Z,93.30
2019-03-03T18:53:01.046Z,93.30
2019-03-03T18:55:31.902Z,93.20
2019-03-03T18:58:02.813Z,93.30
2019-03-03T19:00:34.267Z,93.30
2019-03-03T19:03:06.685Z,93.20
2019-03-03T19:05:37.698Z,92.80
2019-03-03T19:08:08.897Z,93.30
2019-03-03T19:10:40.176Z,93.70
2019-03-03T19:13:11.148Z,93.80
2019-03-03T19:15:42.152Z,94.00
2019-03-03T19:18:12.987Z,93.90
2019-03-03T19:20:43.867Z,93.70
2019-03-03T19:23:14.903Z,93.50
2019-03-03T19:25:45.756Z,93.70
2019-03-03T19:28:17.008Z,93.40
2019-03-03T19:30:48.248Z,93.50
2019-03-03T19:33:23.010Z,93.20
2019-03-03T19:35:54.290Z,93.20
2019-03-03T19:38:25.331Z,93.50
2019-03-03T19:40:56.173Z,93.50
2019-03-03T19:43:28.143Z,93.20
2019-03-03T19:45:59.165Z,93.90
2019-03-03T19:48:30.021Z,94.00
2019-03-03T19:51:00.879Z,93.20
2019-03-03T19:53:32.139Z,93.60
2019-03-03T19:56:03.100Z,94.00
2019-03-03T19:58:34.289Z,94.10
2019-03-03T20:01:06.132Z,94.10
2019-03-03T20:03:37.070Z,93.70
2019-03-03T20:06:08.041Z,94.00
2019-03-03T20:08:38.930Z,93.90
2019-03-03T20:11:10.862Z,93.80
2019-03-03T20:13:41.736Z,93.40
2019-03-03T20:16:13.097Z,93.40
2019-03-03T20:18:44.013Z,93.20
2019-03-03T20:21:14.923Z,94.00
2019-03-03T20:23:45.739Z,94.10
2019-03-03T20:26:16.675Z,93.80
2019-03-03T20:28:47.606Z,94.00
2019-03-03T20:31:18.557Z,94.00
2019-03-03T20:33:49.394Z,94.20
2019-03-03T20:36:20.250Z,93.70
2019-03-03T20:38:51.077Z,94.00
2019-03-03T20:41:21.939Z,94.10
2019-03-03T20:43:52.784Z,94.20
2019-03-03T20:46:23.709Z,93.90
2019-03-03T20:48:54.521Z,94.10
2019-03-03T20:51:25.369Z,93.70
2019-03-03T20:53:56.181Z,93.80
2019-03-03T20:56:27.179Z,93.60
2019-03-03T20:58:58.913Z,92.90
2019-03-03T21:01:29.783Z,93.10
2019-03-03T21:04:02.272Z,93.80
2019-03-03T21:06:33.128Z,93.60
2019-03-03T21:09:05.540Z,93.90
2019-03-03T21:11:38.076Z,94.10
2019-03-03T21:14:09.014Z,94.00
2019-03-03T21:16:40.145Z,93.90
2019-03-03T21:19:11.129Z,93.50
2019-03-03T21:21:42.012Z,93.80
2019-03-03T21:24:12.813Z,93.50
2019-03-03T21:26:43.673Z,93.60
2019-03-03T21:29:14.572Z,93.70
2019-03-03T21:31:45.444Z,93.70
2019-03-03T21:34:16.297Z,93.40
2019-03-03T21:36:47.181Z,92.80
2019-03-03T21:39:18.060Z,93.10
2019-03-03T21:41:48.946Z,93.30
2019-03-03T21:44:19.793Z,93.30
2019-03-03T21:46:51.737Z,93.20
2019-03-03T21:49:23.192Z,92.60
2019-03-03T21:51:54.519Z,93.00
2019-03-03T21:54:25.628Z,92.50
2019-03-03T21:56:57.302Z,92.90
2019-03-03T21:59:28.465Z,92.80
2019-03-03T22:01:59.729Z,92.50
2019-03-03T22:04:30.550Z,92.80
2019-03-03T22:07:01.398Z,92.80
2019-03-03T22:09:34.489Z,93.30
2019-03-03T22:12:05.786Z,93.40
2019-03-03T22:14:37.161Z,93.30
2019-03-03T22:17:08.368Z,93.30
2019-03-03T22:19:39.513Z,93.30
2019-03-03T22:22:10.372Z,93.30
2019-03-03T22:24:41.511Z,92.80
2019-03-03T22:27:13.064Z,93.00
2019-03-03T22:29:44.199Z,92.70
2019-03-03T22:32:15.355Z,92.90
2019-03-03T22:34:46.565Z,93.00
2019-03-03T22:37:17.444Z,92.80
2019-03-03T22:39:48.320Z,92.20
2019-03-03T22:42:19.293Z,92.20
2019-03-03T22:44:50.144Z,92.30
2019-03-03T22:47:21.030Z,92.40
2019-03-03T22:49:52.369Z,91.90
2019-03-03T22:52:23.696Z,91.90
2019-03-03T22:54:54.889Z,92.50
2019-03-03T22:57:26.125Z,92.20
2019-03-03T22:59:56.931Z,92.10
2019-03-03T23:02:28.153Z,92.10
2019-03-03T23:05:17.045Z,91.70
2019-03-03T23:08:07.540Z,91.70
2019-03-03T23:10:43.381Z,91.50
2019-03-03T23:13:36.347Z,91.40
2019-03-03T23:17:06.294Z,91.80
2019-03-03T23:20:23.888Z,91.50
2019-03-03T23:23:26.642Z,91.50
2019-03-03T23:25:57.839Z,91.80
2019-03-03T23:28:28.877Z,91.80
2019-03-03T23:31:00.270Z,91.70
2019-03-03T23:33:31.365Z,91.60
2019-03-03T23:36:02.720Z,91.40
2019-03-03T23:38:34.027Z,91.40
2019-03-03T23:41:05.104Z,91.80
2019-03-03T23:43:35.936Z,91.40
2019-03-03T23:46:06.782Z,91.60
2019-03-03T23:48:37.611Z,91.30
2019-03-03T23:51:08.452Z,91.00
2019-03-03T23:53:39.285Z,91.20
2019-03-03T23:56:10.493Z,90.80
2019-03-03T23:58:41.333Z,90.70
